sensor_id;sensor_type;location;lat;lon;timestamp;P1;durP1;ratioP1;P2;durP2;ratioP2
13374;SDS011;6756;51.354;15.754;2023-05-08T00:03:29;13.13;;;9.27;;
13374;SDS011;6756;51.354;15.754;2023-05-08T00:07:30;13.87;;;9.33;;
13374;SDS011;6756;51.354;15.754;2023-05-08T00:11:31;12.27;;;8.13;;
13374;SDS011;6756;51.354;15.754;2023-05-08T00:15:32;8.23;;;6.57;;
13374;SDS011;6756;51.354;15.754;2023-05-08T00:19:35;9.73;;;6.13;;
13374;SDS011;6756;51.354;15.754;2023-05-08T00:23:36;7.67;;;6.40;;
13374;SDS011;6756;51.354;15.754;2023-05-08T00:27:37;6.70;;;5.80;;
13374;SDS011;6756;51.354;15.754;2023-05-08T00:31:38;8.73;;;7.07;;
13374;SDS011;6756;51.354;15.754;2023-05-08T00:35:39;9.67;;;6.87;;
13374;SDS011;6756;51.354;15.754;2023-05-08T00:39:41;7.23;;;6.00;;
13374;SDS011;6756;51.354;15.754;2023-05-08T00:43:42;6.93;;;5.07;;
13374;SDS011;6756;51.354;15.754;2023-05-08T00:47:43;6.97;;;5.73;;
13374;SDS011;6756;51.354;15.754;2023-05-08T00:51:49;6.47;;;4.87;;
13374;SDS011;6756;51.354;15.754;2023-05-08T00:55:53;6.40;;;5.50;;
13374;SDS011;6756;51.354;15.754;2023-05-08T00:59:54;6.57;;;5.10;;
13374;SDS011;6756;51.354;15.754;2023-05-08T01:03:57;6.07;;;4.93;;
13374;SDS011;6756;51.354;15.754;2023-05-08T01:07:58;4.83;;;4.30;;
13374;SDS011;6756;51.354;15.754;2023-05-08T01:16:28;5.07;;;4.40;;
13374;SDS011;6756;51.354;15.754;2023-05-08T01:20:43;5.17;;;4.47;;
13374;SDS011;6756;51.354;15.754;2023-05-08T01:33:55;4.50;;;3.87;;
13374;SDS011;6756;51.354;15.754;2023-05-08T01:46:49;5.10;;;4.03;;
13374;SDS011;6756;51.354;15.754;2023-05-08T01:50:54;5.40;;;4.37;;
13374;SDS011;6756;51.354;15.754;2023-05-08T01:55:05;5.27;;;3.60;;
13374;SDS011;6756;51.354;15.754;2023-05-08T01:59:12;5.27;;;4.23;;
13374;SDS011;6756;51.354;15.754;2023-05-08T02:03:16;7.03;;;4.40;;
13374;SDS011;6756;51.354;15.754;2023-05-08T02:07:20;5.73;;;4.63;;
13374;SDS011;6756;51.354;15.754;2023-05-08T02:11:23;5.90;;;5.30;;
13374;SDS011;6756;51.354;15.754;2023-05-08T02:15:25;5.50;;;4.73;;
13374;SDS011;6756;51.354;15.754;2023-05-08T02:19:28;6.37;;;4.77;;
13374;SDS011;6756;51.354;15.754;2023-05-08T02:23:30;5.67;;;4.93;;
13374;SDS011;6756;51.354;15.754;2023-05-08T02:27:33;6.60;;;5.40;;
13374;SDS011;6756;51.354;15.754;2023-05-08T02:31:36;7.73;;;4.97;;
13374;SDS011;6756;51.354;15.754;2023-05-08T02:35:38;6.37;;;5.00;;
13374;SDS011;6756;51.354;15.754;2023-05-08T02:39:45;8.13;;;4.83;;
13374;SDS011;6756;51.354;15.754;2023-05-08T02:43:47;11.00;;;7.17;;
13374;SDS011;6756;51.354;15.754;2023-05-08T02:48:10;13.47;;;7.73;;
13374;SDS011;6756;51.354;15.754;2023-05-08T02:52:21;19.30;;;11.93;;
13374;SDS011;6756;51.354;15.754;2023-05-08T02:56:38;26.60;;;17.40;;
13374;SDS011;6756;51.354;15.754;2023-05-08T03:00:46;29.80;;;20.40;;
13374;SDS011;6756;51.354;15.754;2023-05-08T03:05:01;24.13;;;17.90;;
13374;SDS011;6756;51.354;15.754;2023-05-08T03:09:20;20.83;;;13.67;;
13374;SDS011;6756;51.354;15.754;2023-05-08T03:13:26;20.03;;;11.53;;
13374;SDS011;6756;51.354;15.754;2023-05-08T03:17:31;20.40;;;10.53;;
13374;SDS011;6756;51.354;15.754;2023-05-08T03:21:34;17.53;;;10.03;;
13374;SDS011;6756;51.354;15.754;2023-05-08T03:25:40;19.50;;;10.13;;
13374;SDS011;6756;51.354;15.754;2023-05-08T03:29:45;17.77;;;10.60;;
13374;SDS011;6756;51.354;15.754;2023-05-08T03:33:47;18.20;;;8.30;;
13374;SDS011;6756;51.354;15.754;2023-05-08T03:37:52;14.40;;;8.70;;
13374;SDS011;6756;51.354;15.754;2023-05-08T03:41:54;15.97;;;8.63;;
13374;SDS011;6756;51.354;15.754;2023-05-08T03:45:55;14.70;;;8.63;;
13374;SDS011;6756;51.354;15.754;2023-05-08T03:49:58;12.33;;;8.47;;
13374;SDS011;6756;51.354;15.754;2023-05-08T03:54:02;12.57;;;8.37;;
13374;SDS011;6756;51.354;15.754;2023-05-08T04:02:46;19.57;;;12.97;;
13374;SDS011;6756;51.354;15.754;2023-05-08T04:11:29;11.10;;;9.23;;
13374;SDS011;6756;51.354;15.754;2023-05-08T04:20:13;15.07;;;9.73;;
13374;SDS011;6756;51.354;15.754;2023-05-08T04:24:20;7.90;;;5.87;;
13374;SDS011;6756;51.354;15.754;2023-05-08T04:28:23;6.70;;;5.47;;
13374;SDS011;6756;51.354;15.754;2023-05-08T04:32:24;7.27;;;5.40;;
13374;SDS011;6756;51.354;15.754;2023-05-08T04:36:26;5.80;;;5.20;;
13374;SDS011;6756;51.354;15.754;2023-05-08T04:40:32;5.93;;;4.67;;
13374;SDS011;6756;51.354;15.754;2023-05-08T04:44:38;10.63;;;7.00;;
13374;SDS011;6756;51.354;15.754;2023-05-08T04:48:39;7.63;;;5.00;;
13374;SDS011;6756;51.354;15.754;2023-05-08T04:52:40;5.60;;;4.83;;
13374;SDS011;6756;51.354;15.754;2023-05-08T04:56:41;5.67;;;3.90;;
13374;SDS011;6756;51.354;15.754;2023-05-08T05:00:43;7.23;;;5.90;;
13374;SDS011;6756;51.354;15.754;2023-05-08T05:04:44;5.53;;;5.00;;
13374;SDS011;6756;51.354;15.754;2023-05-08T05:08:45;5.73;;;5.13;;
13374;SDS011;6756;51.354;15.754;2023-05-08T05:12:50;9.87;;;7.33;;
13374;SDS011;6756;51.354;15.754;2023-05-08T05:16:51;11.53;;;6.90;;
13374;SDS011;6756;51.354;15.754;2023-05-08T05:20:52;6.60;;;5.47;;
13374;SDS011;6756;51.354;15.754;2023-05-08T05:24:53;5.80;;;4.87;;
13374;SDS011;6756;51.354;15.754;2023-05-08T05:28:56;9.83;;;5.67;;
13374;SDS011;6756;51.354;15.754;2023-05-08T05:32:57;5.77;;;4.63;;
13374;SDS011;6756;51.354;15.754;2023-05-08T05:36:59;5.87;;;4.77;;
13374;SDS011;6756;51.354;15.754;2023-05-08T05:41:00;8.47;;;5.80;;
13374;SDS011;6756;51.354;15.754;2023-05-08T05:45:01;6.90;;;5.50;;
13374;SDS011;6756;51.354;15.754;2023-05-08T05:49:02;8.93;;;6.33;;
13374;SDS011;6756;51.354;15.754;2023-05-08T05:53:07;5.90;;;5.27;;
13374;SDS011;6756;51.354;15.754;2023-05-08T05:57:12;8.87;;;5.40;;
13374;SDS011;6756;51.354;15.754;2023-05-08T06:01:13;7.33;;;4.93;;
13374;SDS011;6756;51.354;15.754;2023-05-08T06:05:14;8.10;;;5.00;;
13374;SDS011;6756;51.354;15.754;2023-05-08T06:09:22;6.53;;;4.20;;
13374;SDS011;6756;51.354;15.754;2023-05-08T06:13:23;5.87;;;4.70;;
13374;SDS011;6756;51.354;15.754;2023-05-08T06:17:28;6.07;;;4.53;;
13374;SDS011;6756;51.354;15.754;2023-05-08T06:21:29;4.80;;;4.30;;
13374;SDS011;6756;51.354;15.754;2023-05-08T06:25:31;5.33;;;4.47;;
13374;SDS011;6756;51.354;15.754;2023-05-08T06:29:34;6.73;;;3.93;;
13374;SDS011;6756;51.354;15.754;2023-05-08T06:33:35;5.37;;;4.53;;
13374;SDS011;6756;51.354;15.754;2023-05-08T06:37:36;5.80;;;3.90;;
13374;SDS011;6756;51.354;15.754;2023-05-08T06:41:40;5.47;;;4.07;;
13374;SDS011;6756;51.354;15.754;2023-05-08T06:45:42;4.53;;;3.83;;
13374;SDS011;6756;51.354;15.754;2023-05-08T06:49:47;4.57;;;4.03;;
13374;SDS011;6756;51.354;15.754;2023-05-08T06:53:51;3.87;;;3.47;;
13374;SDS011;6756;51.354;15.754;2023-05-08T06:57:52;5.90;;;4.13;;
13374;SDS011;6756;51.354;15.754;2023-05-08T07:01:53;4.60;;;4.00;;
13374;SDS011;6756;51.354;15.754;2023-05-08T07:05:57;5.50;;;4.00;;
13374;SDS011;6756;51.354;15.754;2023-05-08T07:10:05;5.40;;;4.33;;
13374;SDS011;6756;51.354;15.754;2023-05-08T07:14:09;6.77;;;4.33;;
13374;SDS011;6756;51.354;15.754;2023-05-08T07:18:13;5.57;;;4.23;;
13374;SDS011;6756;51.354;15.754;2023-05-08T07:22:14;4.17;;;3.77;;
13374;SDS011;6756;51.354;15.754;2023-05-08T07:26:15;5.00;;;3.87;;
13374;SDS011;6756;51.354;15.754;2023-05-08T07:30:16;4.17;;;3.27;;
13374;SDS011;6756;51.354;15.754;2023-05-08T07:34:17;3.50;;;3.13;;
13374;SDS011;6756;51.354;15.754;2023-05-08T07:38:18;3.60;;;3.30;;
13374;SDS011;6756;51.354;15.754;2023-05-08T07:42:27;4.37;;;3.40;;
13374;SDS011;6756;51.354;15.754;2023-05-08T07:46:28;7.57;;;4.07;;
13374;SDS011;6756;51.354;15.754;2023-05-08T07:50:31;3.80;;;3.23;;
13374;SDS011;6756;51.354;15.754;2023-05-08T07:54:33;4.20;;;2.97;;
13374;SDS011;6756;51.354;15.754;2023-05-08T07:58:34;4.10;;;3.67;;
13374;SDS011;6756;51.354;15.754;2023-05-08T08:02:35;3.70;;;3.20;;
13374;SDS011;6756;51.354;15.754;2023-05-08T08:06:37;3.03;;;2.73;;
13374;SDS011;6756;51.354;15.754;2023-05-08T08:10:41;3.33;;;2.80;;
13374;SDS011;6756;51.354;15.754;2023-05-08T08:14:42;4.27;;;2.93;;
13374;SDS011;6756;51.354;15.754;2023-05-08T08:18:43;5.70;;;2.97;;
13374;SDS011;6756;51.354;15.754;2023-05-08T08:22:44;3.47;;;2.53;;
13374;SDS011;6756;51.354;15.754;2023-05-08T08:26:45;4.13;;;3.10;;
13374;SDS011;6756;51.354;15.754;2023-05-08T08:30:49;3.20;;;2.90;;
13374;SDS011;6756;51.354;15.754;2023-05-08T08:34:50;3.43;;;2.73;;
13374;SDS011;6756;51.354;15.754;2023-05-08T08:38:51;4.13;;;3.73;;
13374;SDS011;6756;51.354;15.754;2023-05-08T08:42:54;5.27;;;3.20;;
13374;SDS011;6756;51.354;15.754;2023-05-08T08:46:57;3.37;;;2.70;;
13374;SDS011;6756;51.354;15.754;2023-05-08T08:51:00;5.27;;;3.40;;
13374;SDS011;6756;51.354;15.754;2023-05-08T08:55:06;6.03;;;3.93;;
13374;SDS011;6756;51.354;15.754;2023-05-08T08:59:11;5.87;;;2.90;;
13374;SDS011;6756;51.354;15.754;2023-05-08T09:03:13;3.20;;;2.90;;
13374;SDS011;6756;51.354;15.754;2023-05-08T09:07:15;5.17;;;3.50;;
13374;SDS011;6756;51.354;15.754;2023-05-08T09:11:17;3.17;;;2.83;;
13374;SDS011;6756;51.354;15.754;2023-05-08T09:15:18;4.47;;;3.03;;
13374;SDS011;6756;51.354;15.754;2023-05-08T09:19:19;3.63;;;3.03;;
13374;SDS011;6756;51.354;15.754;2023-05-08T09:23:20;6.90;;;3.13;;
13374;SDS011;6756;51.354;15.754;2023-05-08T09:27:22;4.23;;;3.13;;
13374;SDS011;6756;51.354;15.754;2023-05-08T09:31:33;4.20;;;3.20;;
13374;SDS011;6756;51.354;15.754;2023-05-08T09:35:35;4.00;;;3.00;;
13374;SDS011;6756;51.354;15.754;2023-05-08T09:39:36;3.30;;;2.33;;
13374;SDS011;6756;51.354;15.754;2023-05-08T09:43:42;2.40;;;2.00;;
13374;SDS011;6756;51.354;15.754;2023-05-08T09:47:47;4.50;;;2.57;;
13374;SDS011;6756;51.354;15.754;2023-05-08T09:51:51;7.67;;;2.20;;
13374;SDS011;6756;51.354;15.754;2023-05-08T09:55:53;6.20;;;3.53;;
13374;SDS011;6756;51.354;15.754;2023-05-08T10:00:04;5.17;;;2.30;;
13374;SDS011;6756;51.354;15.754;2023-05-08T10:04:09;4.00;;;2.23;;
13374;SDS011;6756;51.354;15.754;2023-05-08T10:08:19;3.03;;;2.63;;
13374;SDS011;6756;51.354;15.754;2023-05-08T10:12:21;3.30;;;2.50;;
13374;SDS011;6756;51.354;15.754;2023-05-08T10:16:22;3.40;;;2.40;;
13374;SDS011;6756;51.354;15.754;2023-05-08T10:20:28;7.07;;;3.00;;
13374;SDS011;6756;51.354;15.754;2023-05-08T10:24:51;2.90;;;2.53;;
13374;SDS011;6756;51.354;15.754;2023-05-08T10:28:58;3.33;;;2.73;;
13374;SDS011;6756;51.354;15.754;2023-05-08T10:33:05;3.37;;;2.77;;
13374;SDS011;6756;51.354;15.754;2023-05-08T10:37:14;2.90;;;2.60;;
13374;SDS011;6756;51.354;15.754;2023-05-08T10:41:19;4.17;;;2.37;;
13374;SDS011;6756;51.354;15.754;2023-05-08T10:45:23;4.23;;;2.50;;
13374;SDS011;6756;51.354;15.754;2023-05-08T10:49:33;2.83;;;2.53;;
13374;SDS011;6756;51.354;15.754;2023-05-08T10:53:51;3.10;;;1.93;;
13374;SDS011;6756;51.354;15.754;2023-05-08T10:58:03;3.83;;;2.10;;
13374;SDS011;6756;51.354;15.754;2023-05-08T11:02:08;2.93;;;2.20;;
13374;SDS011;6756;51.354;15.754;2023-05-08T11:06:13;2.90;;;2.13;;
13374;SDS011;6756;51.354;15.754;2023-05-08T11:10:14;3.40;;;2.03;;
13374;SDS011;6756;51.354;15.754;2023-05-08T11:14:16;3.27;;;2.30;;
13374;SDS011;6756;51.354;15.754;2023-05-08T11:18:18;2.33;;;1.80;;
13374;SDS011;6756;51.354;15.754;2023-05-08T11:22:22;3.03;;;2.57;;
13374;SDS011;6756;51.354;15.754;2023-05-08T11:26:40;3.63;;;2.10;;
13374;SDS011;6756;51.354;15.754;2023-05-08T11:30:42;2.43;;;1.53;;
13374;SDS011;6756;51.354;15.754;2023-05-08T11:34:44;3.17;;;2.20;;
13374;SDS011;6756;51.354;15.754;2023-05-08T11:39:05;2.50;;;2.00;;
13374;SDS011;6756;51.354;15.754;2023-05-08T11:47:59;4.27;;;2.27;;
13374;SDS011;6756;51.354;15.754;2023-05-08T11:52:01;5.00;;;2.73;;
13374;SDS011;6756;51.354;15.754;2023-05-08T11:56:04;6.00;;;2.50;;
13374;SDS011;6756;51.354;15.754;2023-05-08T12:00:07;3.73;;;2.93;;
13374;SDS011;6756;51.354;15.754;2023-05-08T12:04:10;4.40;;;2.90;;
13374;SDS011;6756;51.354;15.754;2023-05-08T12:08:12;3.43;;;2.47;;
13374;SDS011;6756;51.354;15.754;2023-05-08T12:12:13;5.30;;;3.10;;
13374;SDS011;6756;51.354;15.754;2023-05-08T12:16:14;3.83;;;2.50;;
13374;SDS011;6756;51.354;15.754;2023-05-08T12:20:16;6.60;;;3.27;;
13374;SDS011;6756;51.354;15.754;2023-05-08T12:24:18;5.60;;;3.33;;
13374;SDS011;6756;51.354;15.754;2023-05-08T12:28:22;6.70;;;3.20;;
13374;SDS011;6756;51.354;15.754;2023-05-08T12:32:23;3.50;;;3.20;;
13374;SDS011;6756;51.354;15.754;2023-05-08T12:36:24;8.37;;;3.43;;
13374;SDS011;6756;51.354;15.754;2023-05-08T12:40:27;4.53;;;3.57;;
13374;SDS011;6756;51.354;15.754;2023-05-08T12:44:30;4.60;;;3.43;;
13374;SDS011;6756;51.354;15.754;2023-05-08T12:48:31;5.80;;;3.60;;
13374;SDS011;6756;51.354;15.754;2023-05-08T12:52:32;4.27;;;3.50;;
13374;SDS011;6756;51.354;15.754;2023-05-08T12:56:40;4.97;;;3.80;;
13374;SDS011;6756;51.354;15.754;2023-05-08T13:00:47;4.63;;;4.13;;
13374;SDS011;6756;51.354;15.754;2023-05-08T13:04:54;4.87;;;4.13;;
13374;SDS011;6756;51.354;15.754;2023-05-08T13:08:55;4.77;;;3.67;;
13374;SDS011;6756;51.354;15.754;2023-05-08T13:12:59;6.00;;;3.90;;
13374;SDS011;6756;51.354;15.754;2023-05-08T13:17:02;5.27;;;3.73;;
13374;SDS011;6756;51.354;15.754;2023-05-08T13:21:03;4.67;;;3.60;;
13374;SDS011;6756;51.354;15.754;2023-05-08T13:25:05;6.27;;;4.07;;
13374;SDS011;6756;51.354;15.754;2023-05-08T13:29:06;5.63;;;4.17;;
13374;SDS011;6756;51.354;15.754;2023-05-08T13:33:07;5.17;;;3.37;;
13374;SDS011;6756;51.354;15.754;2023-05-08T13:37:11;5.33;;;3.53;;
13374;SDS011;6756;51.354;15.754;2023-05-08T13:41:12;4.23;;;3.37;;
13374;SDS011;6756;51.354;15.754;2023-05-08T13:45:16;7.10;;;3.27;;
13374;SDS011;6756;51.354;15.754;2023-05-08T13:49:20;8.50;;;5.10;;
13374;SDS011;6756;51.354;15.754;2023-05-08T13:53:23;5.57;;;4.20;;
13374;SDS011;6756;51.354;15.754;2023-05-08T13:57:26;6.33;;;4.30;;
13374;SDS011;6756;51.354;15.754;2023-05-08T14:01:27;8.47;;;4.30;;
13374;SDS011;6756;51.354;15.754;2023-05-08T14:05:28;6.73;;;4.80;;
13374;SDS011;6756;51.354;15.754;2023-05-08T14:09:32;4.93;;;4.20;;
13374;SDS011;6756;51.354;15.754;2023-05-08T14:13:33;4.77;;;4.00;;
13374;SDS011;6756;51.354;15.754;2023-05-08T14:17:34;6.50;;;5.23;;
13374;SDS011;6756;51.354;15.754;2023-05-08T14:21:35;8.30;;;4.23;;
13374;SDS011;6756;51.354;15.754;2023-05-08T14:25:36;7.00;;;4.03;;
13374;SDS011;6756;51.354;15.754;2023-05-08T14:29:37;5.00;;;3.73;;
13374;SDS011;6756;51.354;15.754;2023-05-08T14:33:38;6.87;;;4.83;;
13374;SDS011;6756;51.354;15.754;2023-05-08T14:37:48;6.97;;;4.17;;
13374;SDS011;6756;51.354;15.754;2023-05-08T14:41:51;6.63;;;4.43;;
13374;SDS011;6756;51.354;15.754;2023-05-08T14:45:52;6.90;;;4.87;;
13374;SDS011;6756;51.354;15.754;2023-05-08T14:49:53;5.53;;;4.40;;
13374;SDS011;6756;51.354;15.754;2023-05-08T14:53:54;4.47;;;4.00;;
13374;SDS011;6756;51.354;15.754;2023-05-08T14:57:56;4.90;;;4.27;;
13374;SDS011;6756;51.354;15.754;2023-05-08T15:01:57;6.93;;;4.70;;
13374;SDS011;6756;51.354;15.754;2023-05-08T15:05:57;5.90;;;4.63;;
13374;SDS011;6756;51.354;15.754;2023-05-08T15:09:58;4.97;;;4.50;;
13374;SDS011;6756;51.354;15.754;2023-05-08T15:14:00;7.63;;;4.60;;
13374;SDS011;6756;51.354;15.754;2023-05-08T15:18:01;6.63;;;4.37;;
13374;SDS011;6756;51.354;15.754;2023-05-08T15:22:02;5.40;;;4.37;;
13374;SDS011;6756;51.354;15.754;2023-05-08T15:26:03;9.00;;;4.50;;
13374;SDS011;6756;51.354;15.754;2023-05-08T15:30:04;6.17;;;3.67;;
13374;SDS011;6756;51.354;15.754;2023-05-08T15:34:05;5.17;;;3.70;;
13374;SDS011;6756;51.354;15.754;2023-05-08T15:38:06;5.20;;;3.93;;
13374;SDS011;6756;51.354;15.754;2023-05-08T15:42:07;9.37;;;4.43;;
13374;SDS011;6756;51.354;15.754;2023-05-08T15:46:08;5.20;;;3.87;;
13374;SDS011;6756;51.354;15.754;2023-05-08T15:50:09;4.77;;;3.90;;
13374;SDS011;6756;51.354;15.754;2023-05-08T15:54:10;5.07;;;4.07;;
13374;SDS011;6756;51.354;15.754;2023-05-08T15:58:11;6.63;;;4.47;;
13374;SDS011;6756;51.354;15.754;2023-05-08T16:02:12;7.10;;;3.77;;
13374;SDS011;6756;51.354;15.754;2023-05-08T16:06:15;5.60;;;3.67;;
13374;SDS011;6756;51.354;15.754;2023-05-08T16:10:16;5.90;;;3.77;;
13374;SDS011;6756;51.354;15.754;2023-05-08T16:14:19;3.53;;;3.20;;
13374;SDS011;6756;51.354;15.754;2023-05-08T16:18:19;6.30;;;3.30;;
13374;SDS011;6756;51.354;15.754;2023-05-08T16:22:20;5.47;;;3.23;;
13374;SDS011;6756;51.354;15.754;2023-05-08T16:26:22;4.70;;;3.73;;
13374;SDS011;6756;51.354;15.754;2023-05-08T16:30:26;6.20;;;3.50;;
13374;SDS011;6756;51.354;15.754;2023-05-08T16:34:29;6.27;;;3.23;;
13374;SDS011;6756;51.354;15.754;2023-05-08T16:38:30;4.53;;;3.20;;
13374;SDS011;6756;51.354;15.754;2023-05-08T16:42:31;4.07;;;3.00;;
13374;SDS011;6756;51.354;15.754;2023-05-08T16:46:32;6.63;;;3.30;;
13374;SDS011;6756;51.354;15.754;2023-05-08T16:50:33;7.40;;;3.87;;
13374;SDS011;6756;51.354;15.754;2023-05-08T16:54:34;4.10;;;3.07;;
13374;SDS011;6756;51.354;15.754;2023-05-08T16:58:35;3.90;;;3.10;;
13374;SDS011;6756;51.354;15.754;2023-05-08T17:02:36;3.40;;;3.10;;
13374;SDS011;6756;51.354;15.754;2023-05-08T17:06:38;7.67;;;3.13;;
13374;SDS011;6756;51.354;15.754;2023-05-08T17:10:42;4.07;;;2.93;;
13374;SDS011;6756;51.354;15.754;2023-05-08T17:14:43;5.67;;;2.93;;
13374;SDS011;6756;51.354;15.754;2023-05-08T17:18:44;7.33;;;3.50;;
13374;SDS011;6756;51.354;15.754;2023-05-08T17:22:48;6.20;;;3.23;;
13374;SDS011;6756;51.354;15.754;2023-05-08T17:26:49;4.73;;;2.97;;
13374;SDS011;6756;51.354;15.754;2023-05-08T17:30:50;6.13;;;3.03;;
13374;SDS011;6756;51.354;15.754;2023-05-08T17:34:51;4.63;;;2.50;;
13374;SDS011;6756;51.354;15.754;2023-05-08T17:38:55;5.53;;;3.03;;
13374;SDS011;6756;51.354;15.754;2023-05-08T17:42:56;3.97;;;2.63;;
13374;SDS011;6756;51.354;15.754;2023-05-08T17:46:59;5.57;;;3.63;;
13374;SDS011;6756;51.354;15.754;2023-05-08T17:51:00;3.13;;;2.30;;
13374;SDS011;6756;51.354;15.754;2023-05-08T17:55:02;5.50;;;3.40;;
13374;SDS011;6756;51.354;15.754;2023-05-08T17:59:03;5.27;;;3.80;;
13374;SDS011;6756;51.354;15.754;2023-05-08T18:03:04;4.80;;;3.63;;
13374;SDS011;6756;51.354;15.754;2023-05-08T18:07:05;3.83;;;2.27;;
13374;SDS011;6756;51.354;15.754;2023-05-08T18:11:13;3.97;;;3.03;;
13374;SDS011;6756;51.354;15.754;2023-05-08T18:15:18;9.60;;;7.13;;
13374;SDS011;6756;51.354;15.754;2023-05-08T18:19:25;13.43;;;11.37;;
13374;SDS011;6756;51.354;15.754;2023-05-08T18:23:25;10.67;;;6.77;;
13374;SDS011;6756;51.354;15.754;2023-05-08T18:27:27;5.80;;;4.33;;
13374;SDS011;6756;51.354;15.754;2023-05-08T18:31:28;4.57;;;3.73;;
13374;SDS011;6756;51.354;15.754;2023-05-08T18:35:29;3.30;;;3.00;;
13374;SDS011;6756;51.354;15.754;2023-05-08T18:39:31;4.77;;;2.23;;
13374;SDS011;6756;51.354;15.754;2023-05-08T18:43:32;3.37;;;2.60;;
13374;SDS011;6756;51.354;15.754;2023-05-08T18:47:33;2.90;;;2.00;;
13374;SDS011;6756;51.354;15.754;2023-05-08T18:51:33;4.33;;;2.60;;
13374;SDS011;6756;51.354;15.754;2023-05-08T18:55:34;4.67;;;3.00;;
13374;SDS011;6756;51.354;15.754;2023-05-08T18:59:36;5.40;;;3.10;;
13374;SDS011;6756;51.354;15.754;2023-05-08T19:03:37;5.20;;;2.97;;
13374;SDS011;6756;51.354;15.754;2023-05-08T19:07:38;3.03;;;2.50;;
13374;SDS011;6756;51.354;15.754;2023-05-08T19:11:39;2.93;;;2.30;;
13374;SDS011;6756;51.354;15.754;2023-05-08T19:15:40;2.87;;;2.57;;
13374;SDS011;6756;51.354;15.754;2023-05-08T19:19:41;4.23;;;3.00;;
13374;SDS011;6756;51.354;15.754;2023-05-08T19:23:45;3.87;;;3.23;;
13374;SDS011;6756;51.354;15.754;2023-05-08T19:27:46;4.70;;;3.00;;
13374;SDS011;6756;51.354;15.754;2023-05-08T19:31:48;4.17;;;3.03;;
13374;SDS011;6756;51.354;15.754;2023-05-08T19:35:49;3.63;;;3.23;;
13374;SDS011;6756;51.354;15.754;2023-05-08T19:39:50;4.70;;;3.43;;
13374;SDS011;6756;51.354;15.754;2023-05-08T19:43:51;8.57;;;6.27;;
13374;SDS011;6756;51.354;15.754;2023-05-08T19:47:52;23.67;;;13.60;;
13374;SDS011;6756;51.354;15.754;2023-05-08T19:51:53;15.43;;;10.23;;
13374;SDS011;6756;51.354;15.754;2023-05-08T19:55:53;35.47;;;16.50;;
13374;SDS011;6756;51.354;15.754;2023-05-08T19:59:54;25.33;;;12.93;;
13374;SDS011;6756;51.354;15.754;2023-05-08T20:03:55;22.47;;;11.13;;
13374;SDS011;6756;51.354;15.754;2023-05-08T20:07:56;9.97;;;6.90;;
13374;SDS011;6756;51.354;15.754;2023-05-08T20:11:57;24.33;;;13.43;;
13374;SDS011;6756;51.354;15.754;2023-05-08T20:15:58;18.87;;;11.07;;
13374;SDS011;6756;51.354;15.754;2023-05-08T20:19:59;16.07;;;10.40;;
13374;SDS011;6756;51.354;15.754;2023-05-08T20:24:00;17.40;;;9.87;;
13374;SDS011;6756;51.354;15.754;2023-05-08T20:28:01;5.47;;;4.00;;
13374;SDS011;6756;51.354;15.754;2023-05-08T20:32:05;4.20;;;3.20;;
13374;SDS011;6756;51.354;15.754;2023-05-08T20:36:07;5.50;;;3.23;;
13374;SDS011;6756;51.354;15.754;2023-05-08T20:40:08;5.57;;;3.20;;
13374;SDS011;6756;51.354;15.754;2023-05-08T20:44:09;5.30;;;3.80;;
13374;SDS011;6756;51.354;15.754;2023-05-08T20:48:11;5.13;;;3.17;;
13374;SDS011;6756;51.354;15.754;2023-05-08T20:52:12;5.87;;;4.43;;
13374;SDS011;6756;51.354;15.754;2023-05-08T20:56:13;5.93;;;3.60;;
13374;SDS011;6756;51.354;15.754;2023-05-08T21:00:14;6.13;;;3.97;;
13374;SDS011;6756;51.354;15.754;2023-05-08T21:04:15;4.57;;;3.60;;
13374;SDS011;6756;51.354;15.754;2023-05-08T21:08:19;5.30;;;3.73;;
13374;SDS011;6756;51.354;15.754;2023-05-08T21:12:22;5.43;;;3.43;;
13374;SDS011;6756;51.354;15.754;2023-05-08T21:16:23;5.23;;;3.93;;
13374;SDS011;6756;51.354;15.754;2023-05-08T21:20:30;6.30;;;4.30;;
13374;SDS011;6756;51.354;15.754;2023-05-08T21:24:33;7.03;;;4.10;;
13374;SDS011;6756;51.354;15.754;2023-05-08T21:28:34;6.30;;;4.33;;
13374;SDS011;6756;51.354;15.754;2023-05-08T21:32:35;5.47;;;4.37;;
13374;SDS011;6756;51.354;15.754;2023-05-08T21:36:36;7.90;;;4.93;;
13374;SDS011;6756;51.354;15.754;2023-05-08T21:40:37;6.77;;;4.13;;
13374;SDS011;6756;51.354;15.754;2023-05-08T21:44:38;7.73;;;4.63;;
13374;SDS011;6756;51.354;15.754;2023-05-08T21:48:39;5.67;;;4.03;;
13374;SDS011;6756;51.354;15.754;2023-05-08T21:52:40;7.77;;;4.67;;
13374;SDS011;6756;51.354;15.754;2023-05-08T21:56:41;6.70;;;4.37;;
13374;SDS011;6756;51.354;15.754;2023-05-08T22:00:42;9.00;;;4.37;;
13374;SDS011;6756;51.354;15.754;2023-05-08T22:04:43;8.80;;;5.07;;
13374;SDS011;6756;51.354;15.754;2023-05-08T22:08:44;7.03;;;4.93;;
13374;SDS011;6756;51.354;15.754;2023-05-08T22:12:45;4.73;;;3.97;;
13374;SDS011;6756;51.354;15.754;2023-05-08T22:16:49;5.87;;;4.23;;
13374;SDS011;6756;51.354;15.754;2023-05-08T22:20:50;8.00;;;4.63;;
13374;SDS011;6756;51.354;15.754;2023-05-08T22:24:51;6.93;;;4.70;;
13374;SDS011;6756;51.354;15.754;2023-05-08T22:28:52;7.83;;;4.80;;
13374;SDS011;6756;51.354;15.754;2023-05-08T22:32:54;5.93;;;4.60;;
13374;SDS011;6756;51.354;15.754;2023-05-08T22:36:56;7.83;;;4.90;;
13374;SDS011;6756;51.354;15.754;2023-05-08T22:40:58;6.33;;;4.67;;
13374;SDS011;6756;51.354;15.754;2023-05-08T22:44:59;6.57;;;4.60;;
13374;SDS011;6756;51.354;15.754;2023-05-08T22:49:00;5.47;;;4.67;;
13374;SDS011;6756;51.354;15.754;2023-05-08T22:53:01;6.50;;;5.03;;
13374;SDS011;6756;51.354;15.754;2023-05-08T22:57:07;8.03;;;4.37;;
13374;SDS011;6756;51.354;15.754;2023-05-08T23:01:08;8.17;;;5.10;;
13374;SDS011;6756;51.354;15.754;2023-05-08T23:05:08;6.97;;;4.70;;
13374;SDS011;6756;51.354;15.754;2023-05-08T23:09:10;6.13;;;4.63;;
13374;SDS011;6756;51.354;15.754;2023-05-08T23:13:11;6.43;;;4.33;;
13374;SDS011;6756;51.354;15.754;2023-05-08T23:17:12;6.93;;;4.93;;
13374;SDS011;6756;51.354;15.754;2023-05-08T23:21:13;7.33;;;4.43;;
13374;SDS011;6756;51.354;15.754;2023-05-08T23:25:17;7.07;;;4.23;;
13374;SDS011;6756;51.354;15.754;2023-05-08T23:29:18;6.93;;;4.23;;
13374;SDS011;6756;51.354;15.754;2023-05-08T23:33:19;6.90;;;4.77;;
13374;SDS011;6756;51.354;15.754;2023-05-08T23:37:20;5.50;;;4.63;;
13374;SDS011;6756;51.354;15.754;2023-05-08T23:41:21;5.93;;;4.80;;
13374;SDS011;6756;51.354;15.754;2023-05-08T23:45:22;6.83;;;4.37;;
13374;SDS011;6756;51.354;15.754;2023-05-08T23:49:24;4.73;;;4.20;;
13374;SDS011;6756;51.354;15.754;2023-05-08T23:53:25;6.73;;;4.57;;
13374;SDS011;6756;51.354;15.754;2023-05-08T23:57:25;6.77;;;4.40;;
